Terminal Aerodrome Forecast
Issued by NWS

Home | Current Version | Previous Version | Text Only | Print | Product List | Glossary On
Versions: 1 2 3 4 5 6 7 8 9 10 11 12 13 14 15 16 17 18 19 20 21
271
FTUS41 KGYX 292320
TAFRKD
TAF
KRKD 292320Z 3000/3024 21009KT P6SM SCT250
     FM300300 VRB03KT P6SM BKN250
     FM301200 04005KT P6SM SCT120
     FM301700 18012KT P6SM SCT120
      AMD LTD TO CLD VIS AND WIND=

USA.gov is the U.S. government's official web portal to all federal, state and local government web resources and services.